createdAt,value
2019-01-09T00:00:47.947Z,94429.48
2019-01-09T00:03:14.323Z,94424.82
2019-01-09T00:05:40.677Z,94430.90
2019-01-09T00:08:07.116Z,94445.56
2019-01-09T00:10:33.471Z,94437.41
2019-01-09T00:12:59.802Z,94431.92
2019-01-09T00:15:26.139Z,94419.80
2019-01-09T00:17:52.472Z,94405.95
2019-01-09T00:20:18.808Z,94409.80
2019-01-09T00:22:45.173Z,94415.16
2019-01-09T00:25:11.515Z,94419.56
2019-01-09T00:27:37.845Z,94424.00
2019-01-09T00:30:04.259Z,94422.48
2019-01-09T00:32:30.560Z,94418.28
2019-01-09T00:34:56.892Z,94419.56
2019-01-09T00:37:23.312Z,94420.02
2019-01-09T00:39:49.631Z,94427.62
2019-01-09T00:42:16.032Z,94416.55
2019-01-09T00:44:42.363Z,94418.74
2019-01-09T00:47:08.715Z,94421.44
2019-01-09T00:49:35.087Z,94424.79
2019-01-09T00:52:01.467Z,94430.05
2019-01-09T00:54:27.853Z,94430.87
2019-01-09T00:56:54.198Z,94423.51
2019-01-09T00:59:20.587Z,94413.16
2019-01-09T01:01:46.922Z,94409.31
2019-01-09T01:04:13.375Z,94406.75
2019-01-09T01:06:39.750Z,94409.91
2019-01-09T01:09:06.085Z,94405.70
2019-01-09T01:11:32.454Z,94405.49
2019-01-09T01:13:58.841Z,94409.92
2019-01-09T01:16:25.163Z,94422.55
2019-01-09T01:18:51.495Z,94422.19
2019-01-09T01:21:17.829Z,94425.80
2019-01-09T01:23:44.186Z,94427.66
2019-01-09T01:26:10.530Z,94424.88
2019-01-09T01:28:36.865Z,94423.36
2019-01-09T01:31:03.195Z,94420.78
2019-01-09T01:33:29.586Z,94424.63
2019-01-09T01:35:55.933Z,94421.97
2019-01-09T01:38:22.272Z,94415.91
2019-01-09T01:40:48.602Z,94419.17
2019-01-09T01:43:14.941Z,94417.06
2019-01-09T01:45:41.263Z,94415.20
2019-01-09T01:48:07.594Z,94403.42
2019-01-09T01:50:33.926Z,94404.47
2019-01-09T01:53:00.256Z,94412.18
2019-01-09T01:55:26.580Z,94405.53
2019-01-09T01:57:52.909Z,94399.00
2019-01-09T02:00:19.239Z,94401.66
2019-01-09T02:02:45.594Z,94401.09
2019-01-09T02:05:11.929Z,94393.51
2019-01-09T02:07:38.258Z,94392.23
2019-01-09T02:10:04.587Z,94393.29
2019-01-09T02:12:30.971Z,94387.45
2019-01-09T02:14:57.317Z,94386.64
2019-01-09T02:17:23.664Z,94385.00
2019-01-09T02:19:49.992Z,94379.64
2019-01-09T02:22:16.342Z,94378.48
2019-01-09T02:24:42.645Z,94375.41
2019-01-09T02:27:09.039Z,94373.43
2019-01-09T02:29:35.389Z,94370.88
2019-01-09T02:32:01.740Z,94369.23
2019-01-09T02:34:28.197Z,94366.08
2019-01-09T02:36:54.520Z,94362.92
2019-01-09T02:39:20.855Z,94363.14
2019-01-09T02:41:47.466Z,94357.19
2019-01-09T02:44:13.820Z,94356.62
2019-01-09T02:46:40.155Z,94352.27
2019-01-09T02:49:06.509Z,94349.96
2019-01-09T02:51:32.837Z,94344.45
2019-01-09T02:53:59.219Z,94342.48
2019-01-09T02:56:25.485Z,94342.59
2019-01-09T02:58:51.854Z,94346.30
2019-01-09T03:01:18.196Z,94339.06
2019-01-09T03:03:44.494Z,94337.08
2019-01-09T03:06:10.831Z,94341.64
2019-01-09T03:08:37.156Z,94334.18
2019-01-09T03:11:03.498Z,94334.05
2019-01-09T03:13:29.814Z,94337.30
2019-01-09T03:15:56.150Z,94333.94
2019-01-09T03:18:22.478Z,94329.02
2019-01-09T03:20:48.805Z,94325.88
2019-01-09T03:23:15.157Z,94318.32
2019-01-09T03:25:41.495Z,94327.30
2019-01-09T03:28:07.816Z,94335.08
2019-01-09T03:30:35.433Z,94322.60
2019-01-09T03:33:00.527Z,94321.78
2019-01-09T03:35:26.874Z,94316.64
2019-01-09T03:37:53.199Z,94321.31
2019-01-09T03:40:19.623Z,94310.94
2019-01-09T03:42:46.017Z,94303.56
2019-01-09T03:45:12.393Z,94300.42
2019-01-09T03:47:38.724Z,94297.75
2019-01-09T03:50:05.056Z,94290.62
2019-01-09T03:52:31.451Z,94292.80
2019-01-09T03:54:57.773Z,94297.56
2019-01-09T03:57:24.106Z,94290.69
2019-01-09T03:59:50.497Z,94300.70
2019-01-09T04:02:16.826Z,94305.48
2019-01-09T04:04:43.153Z,94307.08
2019-01-09T04:07:09.484Z,94302.27
2019-01-09T04:09:35.816Z,94294.92
2019-01-09T04:12:02.147Z,94291.84
2019-01-09T04:14:28.482Z,94289.16
2019-01-09T04:16:54.814Z,94287.27
2019-01-09T04:19:21.203Z,94291.69
2019-01-09T04:21:47.531Z,94302.39
2019-01-09T04:24:13.916Z,94291.29
2019-01-09T04:26:40.243Z,94291.86
2019-01-09T04:29:06.592Z,94302.91
2019-01-09T04:31:32.920Z,94296.16
2019-01-09T04:33:59.253Z,94288.20
2019-01-09T04:36:25.599Z,94282.66
2019-01-09T04:38:51.924Z,94279.97
2019-01-09T04:41:18.311Z,94283.22
2019-01-09T04:43:44.640Z,94283.92
2019-01-09T04:46:10.977Z,94277.14
2019-01-09T04:48:37.306Z,94282.64
2019-01-09T04:51:03.684Z,94286.01
2019-01-09T04:53:30.074Z,94277.36
2019-01-09T04:55:56.396Z,94266.12
2019-01-09T04:58:22.788Z,94261.33
2019-01-09T05:00:49.174Z,94263.52
2019-01-09T05:03:15.510Z,94259.67
2019-01-09T05:05:41.839Z,94258.91
2019-01-09T05:08:08.157Z,94261.02
2019-01-09T05:10:34.482Z,94268.81
2019-01-09T05:13:00.809Z,94263.06
2019-01-09T05:15:27.171Z,94255.84
2019-01-09T05:17:53.522Z,94255.23
2019-01-09T05:20:19.880Z,94249.83
2019-01-09T05:22:46.293Z,94257.43
2019-01-09T05:25:12.579Z,94247.93
2019-01-09T05:27:38.924Z,94235.08
2019-01-09T05:30:05.238Z,94241.13
2019-01-09T05:32:31.609Z,94241.18
2019-01-09T05:34:57.917Z,94241.73
2019-01-09T05:37:24.266Z,94239.02
2019-01-09T05:39:50.732Z,94232.73
2019-01-09T05:42:17.056Z,94232.73
2019-01-09T05:44:43.390Z,94218.80
2019-01-09T05:47:09.830Z,94221.31
2019-01-09T05:49:36.162Z,94217.07
2019-01-09T05:52:02.493Z,94210.91
2019-01-09T05:54:28.851Z,94204.56
2019-01-09T05:56:55.174Z,94202.81
2019-01-09T05:59:21.572Z,94204.50
2019-01-09T06:01:47.914Z,94212.95
2019-01-09T06:04:14.361Z,94206.05
2019-01-09T06:06:40.701Z,94205.69
2019-01-09T06:09:07.032Z,94200.67
2019-01-09T06:11:33.435Z,94209.91
2019-01-09T06:13:59.763Z,94208.80
2019-01-09T06:16:26.098Z,94213.41
2019-01-09T06:18:52.425Z,94219.09
2019-01-09T06:21:18.857Z,94211.45
2019-01-09T06:23:45.188Z,94199.20
2019-01-09T06:26:11.514Z,94200.22
2019-01-09T06:28:37.948Z,94196.43
2019-01-09T06:31:04.374Z,94199.34
2019-01-09T06:33:30.774Z,94199.94
2019-01-09T06:35:57.105Z,94188.80
2019-01-09T06:38:23.452Z,94188.10
2019-01-09T06:40:49.805Z,94189.22
2019-01-09T06:43:16.178Z,94182.59
2019-01-09T06:45:42.590Z,94187.74
2019-01-09T06:48:09.058Z,94188.62
2019-01-09T06:50:35.386Z,94189.91
2019-01-09T06:53:01.681Z,94186.99
2019-01-09T06:55:28.522Z,94187.92
2019-01-09T06:57:54.851Z,94180.27
2019-01-09T07:00:21.190Z,94183.65
2019-01-09T07:02:47.549Z,94180.43
2019-01-09T07:05:13.962Z,94181.70
2019-01-09T07:07:40.310Z,94192.34
2019-01-09T07:10:06.755Z,94191.83
2019-01-09T07:12:33.093Z,94187.11
2019-01-09T07:14:59.433Z,94182.52
2019-01-09T07:17:25.771Z,94178.50
2019-01-09T07:19:52.112Z,94177.63
2019-01-09T07:22:18.441Z,94181.77
2019-01-09T07:24:47.258Z,94173.66
2019-01-09T07:27:13.601Z,94161.34
2019-01-09T07:29:39.958Z,94165.75
2019-01-09T07:32:06.327Z,94183.05
2019-01-09T07:34:32.707Z,94190.09
2019-01-09T07:36:59.196Z,94185.77
2019-01-09T07:39:25.551Z,94191.98
2019-01-09T07:41:51.928Z,94196.07
2019-01-09T07:44:19.274Z,94192.80
2019-01-09T07:46:45.701Z,94185.61
2019-01-09T07:49:12.036Z,94192.70
2019-01-09T07:51:38.408Z,94185.41
2019-01-09T07:54:04.821Z,94167.78
2019-01-09T07:56:31.169Z,94180.13
2019-01-09T07:58:57.504Z,94188.79
2019-01-09T08:01:23.990Z,94199.14
2019-01-09T08:03:50.323Z,94201.84
2019-01-09T08:06:16.720Z,94190.08
2019-01-09T08:08:43.049Z,94184.41
2019-01-09T08:11:09.487Z,94174.18
2019-01-09T08:13:35.906Z,94176.95
2019-01-09T08:16:03.536Z,94176.47
2019-01-09T08:18:30.054Z,94172.48
2019-01-09T08:21:05.031Z,94184.22
2019-01-09T08:23:23.118Z,94183.98
2019-01-09T08:25:49.482Z,94186.50
2019-01-09T08:28:15.877Z,94180.52
2019-01-09T08:30:42.246Z,94174.54
2019-01-09T08:33:10.810Z,94172.75
2019-01-09T08:35:37.128Z,94171.91
2019-01-09T08:38:03.521Z,94179.41
2019-01-09T08:40:29.937Z,94167.59
2019-01-09T08:42:56.259Z,94182.35
2019-01-09T08:45:22.624Z,94183.91
2019-01-09T08:47:49.091Z,94187.89
2019-01-09T08:50:15.471Z,94190.65
2019-01-09T08:52:41.843Z,94192.13
2019-01-09T08:55:08.216Z,94167.30
2019-01-09T08:57:34.608Z,94159.56
2019-01-09T09:00:01.369Z,94169.59
2019-01-09T09:02:28.064Z,94171.48
2019-01-09T09:04:54.411Z,94173.95
2019-01-09T09:07:20.848Z,94171.95
2019-01-09T09:09:47.255Z,94169.70
2019-01-09T09:12:17.008Z,94168.48
2019-01-09T09:14:43.406Z,94156.05
2019-01-09T09:17:09.753Z,94156.28
2019-01-09T09:19:36.086Z,94155.00
2019-01-09T09:22:02.441Z,94147.84
2019-01-09T09:24:28.781Z,94141.70
2019-01-09T09:26:55.293Z,94140.95
2019-01-09T09:29:21.739Z,94151.03
2019-01-09T09:31:48.122Z,94141.11
2019-01-09T09:34:14.458Z,94125.38
2019-01-09T09:36:40.803Z,94126.39
2019-01-09T09:39:07.147Z,94121.87
2019-01-09T09:41:33.877Z,94116.23
2019-01-09T09:44:00.312Z,94117.13
2019-01-09T09:46:26.663Z,94115.06
2019-01-09T09:48:53.075Z,94114.11
2019-01-09T09:51:19.468Z,94111.84
2019-01-09T09:53:45.767Z,94112.34
2019-01-09T09:56:12.265Z,94106.63
2019-01-09T09:58:38.600Z,94103.17
2019-01-09T10:01:04.962Z,94106.22
2019-01-09T10:03:31.317Z,94103.94
2019-01-09T10:05:57.670Z,94097.55
2019-01-09T10:08:29.351Z,94092.71
2019-01-09T10:10:50.408Z,94092.67
2019-01-09T10:13:16.855Z,94092.98
2019-01-09T10:15:43.170Z,94094.14
2019-01-09T10:18:09.504Z,94087.53
2019-01-09T10:20:35.898Z,94082.12
2019-01-09T10:23:02.234Z,94081.10
2019-01-09T10:25:28.575Z,94087.47
2019-01-09T10:27:54.975Z,94089.16
2019-01-09T10:30:21.348Z,94092.46
2019-01-09T10:32:47.688Z,94087.52
2019-01-09T10:35:16.208Z,94076.73
2019-01-09T10:37:42.496Z,94075.94
2019-01-09T10:40:08.982Z,94075.56
2019-01-09T10:42:35.319Z,94073.75
2019-01-09T10:45:01.724Z,94070.46
2019-01-09T10:47:28.055Z,94060.26
2019-01-09T10:49:54.957Z,94059.48
2019-01-09T10:52:21.292Z,94056.69
2019-01-09T10:54:47.681Z,94053.64
2019-01-09T10:57:14.066Z,94053.52
2019-01-09T10:59:40.416Z,94041.09
2019-01-09T11:02:06.824Z,94045.05
2019-01-09T11:04:33.182Z,94035.97
2019-01-09T11:06:59.550Z,94028.27
2019-01-09T11:09:25.902Z,94026.13
2019-01-09T11:11:52.676Z,94027.28
2019-01-09T11:14:19.539Z,94018.09
2019-01-09T11:16:45.892Z,94017.27
2019-01-09T11:19:12.234Z,94018.47
2019-01-09T11:21:39.134Z,94017.48
2019-01-09T11:24:05.482Z,93998.91
2019-01-09T11:26:31.871Z,93988.45
2019-01-09T11:28:58.428Z,93983.50
2019-01-09T11:31:24.663Z,93981.09
2019-01-09T11:33:51.114Z,93974.33
2019-01-09T11:36:17.546Z,93971.55
2019-01-09T11:38:43.901Z,93968.19
2019-01-09T11:41:10.294Z,93964.35
2019-01-09T11:43:36.747Z,93952.70
2019-01-09T11:46:03.093Z,93952.27
2019-01-09T11:48:29.486Z,93938.61
2019-01-09T11:50:55.814Z,93941.94
2019-01-09T11:53:22.171Z,93933.52
2019-01-09T11:55:48.520Z,93926.79
2019-01-09T11:58:14.952Z,93927.58
2019-01-09T12:00:42.864Z,93924.52
2019-01-09T12:03:08.947Z,93904.18
2019-01-09T12:05:35.334Z,93901.27
2019-01-09T12:08:01.758Z,93912.59
2019-01-09T12:10:30.323Z,93911.47
2019-01-09T12:12:55.532Z,93904.88
2019-01-09T12:15:21.994Z,93906.03
2019-01-09T12:17:48.346Z,93908.89
2019-01-09T12:20:14.748Z,93900.67
2019-01-09T12:22:41.237Z,93907.77
2019-01-09T12:25:07.673Z,93894.53
2019-01-09T12:27:34.315Z,93890.52
2019-01-09T12:30:00.565Z,93888.41
2019-01-09T12:32:26.916Z,93881.51
2019-01-09T12:34:53.289Z,93877.33
2019-01-09T12:37:19.731Z,93879.91
2019-01-09T12:39:46.060Z,93876.52
2019-01-09T12:42:12.400Z,93880.41
2019-01-09T12:44:38.818Z,93872.67
2019-01-09T12:47:05.206Z,93870.52
2019-01-09T12:49:31.617Z,93870.06
2019-01-09T12:51:58.127Z,93866.36
2019-01-09T12:54:24.452Z,93848.94
2019-01-09T12:56:50.838Z,93852.16
2019-01-09T12:59:21.869Z,93847.27
2019-01-09T13:01:43.644Z,93847.78
2019-01-09T13:04:10.080Z,93847.34
2019-01-09T13:06:36.428Z,93854.41
2019-01-09T13:09:02.797Z,93858.47
2019-01-09T13:11:29.148Z,93849.72
2019-01-09T13:13:55.591Z,93848.78
2019-01-09T13:16:21.972Z,93852.20
2019-01-09T13:18:48.559Z,93846.02
2019-01-09T13:21:15.617Z,93845.06
2019-01-09T13:23:42.092Z,93844.56
2019-01-09T13:26:10.096Z,93845.56
2019-01-09T13:28:35.203Z,93848.75
2019-01-09T13:31:01.675Z,93847.64
2019-01-09T13:33:28.011Z,93840.53
2019-01-09T13:35:54.441Z,93845.05
2019-01-09T13:38:20.801Z,93848.31
2019-01-09T13:40:47.826Z,93845.39
2019-01-09T13:43:14.577Z,93842.46
2019-01-09T13:45:41.401Z,93841.02
2019-01-09T13:48:07.765Z,93844.56
2019-01-09T13:50:34.170Z,93835.87
2019-01-09T13:53:00.933Z,93832.78
2019-01-09T13:55:27.407Z,93830.87
2019-01-09T13:57:53.876Z,93825.69
2019-01-09T14:00:20.239Z,93822.62
2019-01-09T14:02:46.620Z,93819.44
2019-01-09T14:05:13.110Z,93822.50
2019-01-09T14:07:39.495Z,93814.88
2019-01-09T14:10:06.004Z,93810.72
2019-01-09T14:12:32.367Z,93807.32
2019-01-09T14:14:59.739Z,93806.03
2019-01-09T14:17:26.628Z,93803.44
2019-01-09T14:19:53.168Z,93798.78
2019-01-09T14:22:19.532Z,93795.19
2019-01-09T14:24:45.968Z,93791.80
2019-01-09T14:27:12.476Z,93787.89
2019-01-09T14:29:38.892Z,93790.34
2019-01-09T14:32:05.261Z,93789.37
2019-01-09T14:34:31.711Z,93793.23
2019-01-09T14:36:58.007Z,93790.52
2019-01-09T14:39:24.466Z,93790.95
2019-01-09T14:41:50.836Z,93787.47
2019-01-09T14:44:17.454Z,93785.19
2019-01-09T14:46:43.823Z,93784.91
2019-01-09T14:49:10.143Z,93767.41
2019-01-09T14:51:43.036Z,93780.99
2019-01-09T14:54:02.991Z,93780.99
2019-01-09T14:56:29.321Z,93781.95
2019-01-09T14:58:55.682Z,93779.88
2019-01-09T15:01:22.143Z,93781.83
2019-01-09T15:03:49.093Z,93779.07
2019-01-09T15:06:15.600Z,93782.61
2019-01-09T15:08:41.905Z,93786.00
2019-01-09T15:11:08.434Z,93780.48
2019-01-09T15:13:35.082Z,93775.36
2019-01-09T15:16:01.359Z,93778.58
2019-01-09T15:18:27.768Z,93785.82
2019-01-09T15:20:55.538Z,93780.34
2019-01-09T15:23:21.933Z,93774.86
2019-01-09T15:25:49.148Z,93775.99
2019-01-09T15:28:14.740Z,93774.37
2019-01-09T15:30:41.515Z,93779.52
2019-01-09T15:33:07.825Z,93775.69
2019-01-09T15:35:34.158Z,93773.86
2019-01-09T15:38:00.549Z,93780.84
2019-01-09T15:40:26.985Z,93784.55
2019-01-09T15:42:53.319Z,93784.57
2019-01-09T15:45:19.685Z,93779.19
2019-01-09T15:47:46.032Z,93783.89
2019-01-09T15:50:12.352Z,93788.72
2019-01-09T15:52:38.695Z,93779.97
2019-01-09T15:55:05.062Z,93776.59
2019-01-09T15:57:31.451Z,93783.06
2019-01-09T15:59:57.758Z,93779.67
2019-01-09T16:02:24.176Z,93775.82
2019-01-09T16:04:50.476Z,93770.16
2019-01-09T16:07:16.812Z,93766.79
2019-01-09T16:09:43.149Z,93758.05
2019-01-09T16:12:09.533Z,93759.50
2019-01-09T16:14:35.885Z,93753.84
2019-01-09T16:17:02.231Z,93751.91
2019-01-09T16:19:28.578Z,93745.96
2019-01-09T16:21:54.966Z,93740.92
2019-01-09T16:24:21.326Z,93743.84
2019-01-09T16:26:47.729Z,93737.23
2019-01-09T16:29:14.059Z,93732.37
2019-01-09T16:31:40.543Z,93731.41
2019-01-09T16:34:06.810Z,93733.83
2019-01-09T16:36:33.206Z,93729.96
2019-01-09T16:38:59.604Z,93725.09
2019-01-09T16:41:25.942Z,93721.88
2019-01-09T16:43:52.436Z,93722.06
2019-01-09T16:46:18.847Z,93724.95
2019-01-09T16:48:45.163Z,93707.33
2019-01-09T16:51:11.888Z,93706.62
2019-01-09T16:53:38.203Z,93701.55
2019-01-09T16:56:04.600Z,93704.92
2019-01-09T16:58:30.933Z,93706.36
2019-01-09T17:00:57.324Z,93707.63
2019-01-09T17:03:23.660Z,93706.45
2019-01-09T17:05:50.012Z,93701.62
2019-01-09T17:08:16.336Z,93698.22
2019-01-09T17:10:42.670Z,93697.29
2019-01-09T17:13:09.028Z,93693.06
2019-01-09T17:15:35.357Z,93690.95
2019-01-09T17:18:01.693Z,93690.30
2019-01-09T17:20:28.122Z,93685.95
2019-01-09T17:22:54.520Z,93685.02
2019-01-09T17:25:20.847Z,93684.03
2019-01-09T17:27:47.171Z,93684.03
2019-01-09T17:30:13.582Z,93670.14
2019-01-09T17:32:39.957Z,93673.39
2019-01-09T17:35:06.280Z,93672.27
2019-01-09T17:37:32.602Z,93663.70
2019-01-09T17:39:58.926Z,93667.58
2019-01-09T17:42:25.304Z,93663.53
2019-01-09T17:44:51.643Z,93664.66
2019-01-09T17:47:17.989Z,93657.42
2019-01-09T17:49:44.449Z,93655.30
2019-01-09T17:52:10.767Z,93652.91
2019-01-09T17:54:37.151Z,93650.11
2019-01-09T17:57:03.481Z,93657.84
2019-01-09T17:59:29.838Z,93648.17
2019-01-09T18:01:56.174Z,93653.32
2019-01-09T18:04:22.593Z,93646.88
2019-01-09T18:06:48.967Z,93646.86
2019-01-09T18:09:15.379Z,93652.16
2019-01-09T18:11:41.791Z,93650.03
2019-01-09T18:14:08.147Z,93645.36
2019-01-09T18:16:34.451Z,93644.16
2019-01-09T18:19:00.793Z,93649.98
2019-01-09T18:21:27.148Z,93648.52
2019-01-09T18:23:53.496Z,93655.14
2019-01-09T18:26:19.903Z,93650.77
2019-01-09T18:28:46.597Z,93649.14
2019-01-09T18:31:12.579Z,93646.98
2019-01-09T18:33:38.921Z,93653.09
2019-01-09T18:36:05.290Z,93639.87
2019-01-09T18:38:31.643Z,93646.00
2019-01-09T18:40:59.310Z,93642.45
2019-01-09T18:43:24.399Z,93637.91
2019-01-09T18:45:50.768Z,93639.20
2019-01-09T18:48:17.205Z,93641.77
2019-01-09T18:50:43.546Z,93647.36
2019-01-09T18:53:09.899Z,93644.95
2019-01-09T18:55:36.260Z,93647.20
2019-01-09T18:58:02.610Z,93651.67
2019-01-09T19:00:29.036Z,93647.97
2019-01-09T19:02:55.360Z,93653.59
2019-01-09T19:05:21.691Z,93653.91
2019-01-09T19:07:48.041Z,93643.91
2019-01-09T19:10:14.388Z,93646.27
2019-01-09T19:12:40.719Z,93644.21
2019-01-09T19:15:07.249Z,93641.16
2019-01-09T19:17:33.588Z,93640.98
2019-01-09T19:19:59.918Z,93641.91
2019-01-09T19:22:26.243Z,93636.11
2019-01-09T19:24:52.623Z,93642.07
2019-01-09T19:27:19.023Z,93626.89
2019-01-09T19:29:45.391Z,93638.47
2019-01-09T19:32:11.734Z,93642.26
2019-01-09T19:34:38.076Z,93633.24
2019-01-09T19:37:04.461Z,93632.52
2019-01-09T19:39:30.803Z,93628.72
2019-01-09T19:41:57.187Z,93621.29
2019-01-09T19:44:23.525Z,93627.00
2019-01-09T19:46:49.920Z,93629.73
2019-01-09T19:49:16.251Z,93622.92
2019-01-09T19:51:42.691Z,93625.48
2019-01-09T19:54:09.068Z,93624.62
2019-01-09T19:56:35.393Z,93628.14
2019-01-09T19:59:01.726Z,93628.59
2019-01-09T20:01:28.056Z,93634.85
2019-01-09T20:03:54.412Z,93627.74
2019-01-09T20:06:20.748Z,93636.69
2019-01-09T20:08:47.101Z,93638.78
2019-01-09T20:11:13.466Z,93638.25
2019-01-09T20:13:39.758Z,93630.02
2019-01-09T20:16:06.095Z,93628.73
2019-01-09T20:18:32.431Z,93628.81
2019-01-09T20:20:58.884Z,93628.51
2019-01-09T20:23:25.369Z,93627.17
2019-01-09T20:25:51.684Z,93635.83
2019-01-09T20:28:18.090Z,93638.27
2019-01-09T20:30:44.327Z,93641.42
2019-01-09T20:33:10.673Z,93644.93
2019-01-09T20:35:37.081Z,93643.80
2019-01-09T20:38:03.385Z,93639.99
2019-01-09T20:40:29.758Z,93642.56
2019-01-09T20:42:56.084Z,93644.61
2019-01-09T20:45:22.564Z,93646.19
2019-01-09T20:47:48.978Z,93644.89
2019-01-09T20:50:15.251Z,93649.85
2019-01-09T20:52:41.630Z,93647.94
2019-01-09T20:55:07.942Z,93648.80
2019-01-09T20:57:34.260Z,93642.84
2019-01-09T21:00:00.722Z,93645.92
2019-01-09T21:02:27.006Z,93644.70
2019-01-09T21:04:53.410Z,93640.25
2019-01-09T21:07:19.743Z,93633.61
2019-01-09T21:09:46.049Z,93639.85
2019-01-09T21:12:12.489Z,93641.48
2019-01-09T21:14:38.845Z,93645.44
2019-01-09T21:17:05.131Z,93647.19
2019-01-09T21:19:31.503Z,93645.72
2019-01-09T21:21:57.832Z,93640.52
2019-01-09T21:24:24.186Z,93642.94
2019-01-09T21:26:50.519Z,93630.06
2019-01-09T21:29:16.861Z,93639.05
2019-01-09T21:31:43.196Z,93630.53
2019-01-09T21:34:09.587Z,93629.53
2019-01-09T21:36:35.932Z,93623.18
2019-01-09T21:39:02.281Z,93623.88
2019-01-09T21:41:28.601Z,93624.62
2019-01-09T21:43:54.974Z,93628.31
2019-01-09T21:46:21.295Z,93621.40
2019-01-09T21:48:47.628Z,93624.91
2019-01-09T21:51:13.974Z,93627.59
2019-01-09T21:53:40.360Z,93630.86
2019-01-09T21:56:06.693Z,93636.40
2019-01-09T21:58:33.036Z,93628.85
2019-01-09T22:00:59.372Z,93634.45
2019-01-09T22:03:25.708Z,93628.92
2019-01-09T22:05:52.041Z,93630.39
2019-01-09T22:08:18.442Z,93631.08
2019-01-09T22:10:44.774Z,93629.67
2019-01-09T22:13:11.107Z,93624.41
2019-01-09T22:15:37.469Z,93629.39
2019-01-09T22:18:03.793Z,93623.75
2019-01-09T22:20:30.149Z,93628.73
2019-01-09T22:22:56.489Z,93624.88
2019-01-09T22:25:22.881Z,93622.53
2019-01-09T22:27:49.201Z,93628.35
2019-01-09T22:30:15.519Z,93624.62
2019-01-09T22:32:41.849Z,93629.41
2019-01-09T22:35:08.179Z,93630.48
2019-01-09T22:37:34.617Z,93625.56
2019-01-09T22:40:01.007Z,93623.88
2019-01-09T22:42:27.387Z,93633.05
2019-01-09T22:44:53.715Z,93637.70
2019-01-09T22:47:20.068Z,93636.55
2019-01-09T22:49:46.475Z,93643.05
2019-01-09T22:52:12.790Z,93645.34
2019-01-09T22:54:39.123Z,93637.92
2019-01-09T22:57:05.450Z,93639.64
2019-01-09T22:59:31.988Z,93641.11
2019-01-09T23:01:58.317Z,93647.88
2019-01-09T23:04:24.648Z,93648.12
2019-01-09T23:06:51.046Z,93647.11
2019-01-09T23:09:17.376Z,93649.55
2019-01-09T23:11:43.730Z,93652.78
2019-01-09T23:14:10.062Z,93651.12
2019-01-09T23:16:36.402Z,93637.67
2019-01-09T23:19:02.762Z,93643.14
2019-01-09T23:21:29.153Z,93643.82
2019-01-09T23:23:55.483Z,93639.03
2019-01-09T23:26:21.852Z,93635.19
2019-01-09T23:28:48.118Z,93637.00
2019-01-09T23:31:14.451Z,93636.75
2019-01-09T23:33:40.786Z,93634.18
2019-01-09T23:36:07.117Z,93637.88
2019-01-09T23:38:33.481Z,93635.81
2019-01-09T23:40:59.837Z,93629.92
2019-01-09T23:43:26.159Z,93626.77
2019-01-09T23:45:52.510Z,93629.98
2019-01-09T23:48:18.845Z,93633.64
2019-01-09T23:50:45.230Z,93638.50
2019-01-09T23:53:11.565Z,93631.42
2019-01-09T23:55:37.890Z,93633.92
2019-01-09T23:58:04.347Z,93632.77
